Time;durP1;ratioP1;P1;durP2;ratioP2;P2;SDS_P1;SDS_P2;PMS_P1;PMS_P2;Temp;Humidity;BMP_temperature;BMP_pressure;BME280_temperature;BME280_humidity;BME280_pressure;Samples;Min_cycle;Max_cycle;Signal;HPM_P1;HPM_P2
2021/09/03 00:00:30;;;;;;;;;;;10.30;99.90;;;;;;5063547;28;19924;-78
2021/09/03 00:02:55;;;;;;;;;;;10.20;99.90;;;;;;5063700;28;19920;-76
2021/09/03 00:05:21;;;;;;;;;;;10.20;99.90;;;;;;5057643;28;19916;-78
2021/09/03 00:07:47;;;;;;;;;;;10.20;99.90;;;;;;5054961;28;19916;-78
2021/09/03 00:10:14;;;;;;;;;;;10.10;99.90;;;;;;5068820;28;19916;-78
2021/09/03 00:12:41;;;;;;;;;;;10.10;99.90;;;;;;5069835;28;20271;-79
2021/09/03 00:15:08;;;;;;;;;;;10.20;99.90;;;;;;5053686;28;20281;-77
2021/09/03 00:17:34;;;;;;;;;;;10.10;99.90;;;;;;5085403;28;19970;-77
2021/09/03 00:19:59;;;;;;;;;;;10.00;99.90;;;;;;5052150;28;20426;-77
2021/09/03 00:22:25;;;;;;;;;;;10.10;99.90;;;;;;5051500;28;19960;-78
2021/09/03 00:24:50;;;;;;;;;;;10.20;99.90;;;;;;5069043;28;20014;-78
2021/09/03 00:27:16;;;;;;;;;;;9.90;99.90;;;;;;5046635;28;19920;-76
2021/09/03 00:29:42;;;;;;;;;;;9.80;99.90;;;;;;5099595;28;19917;-76
2021/09/03 00:32:07;;;;;;;;;;;10.20;99.90;;;;;;5053018;28;19967;-76
2021/09/03 00:34:33;;;;;;;;;;;10.00;99.90;;;;;;5054550;28;19927;-77
2021/09/03 00:36:59;;;;;;;;;;;10.00;99.90;;;;;;5053190;28;19960;-78
2021/09/03 00:39:25;;;;;;;;;;;9.80;99.90;;;;;;5054076;28;19921;-76
2021/09/03 00:41:50;;;;;;;;;;;10.10;99.90;;;;;;5053109;28;19927;-77
2021/09/03 00:44:17;;;;;;;;;;;9.90;99.90;;;;;;5056170;28;19916;-77
2021/09/03 00:46:42;;;;;;;;;;;10.20;99.90;;;;;;5088055;28;19996;-78
2021/09/03 00:49:08;;;;;;;;;;;9.90;99.90;;;;;;5051464;28;20347;-77
2021/09/03 00:51:33;;;;;;;;;;;9.80;99.90;;;;;;5063445;28;19927;-76
2021/09/03 00:53:59;;;;;;;;;;;9.80;99.90;;;;;;5085922;28;19916;-78
2021/09/03 00:56:25;;;;;;;;;;;10.00;99.90;;;;;;5068562;28;20038;-78
2021/09/03 00:58:50;;;;;;;;;;;9.70;99.90;;;;;;5072160;28;19962;-77
2021/09/03 01:01:17;;;;;;;;;;;9.70;99.90;;;;;;5063673;28;20366;-76
2021/09/03 01:03:43;;;;;;;;;;;9.70;99.90;;;;;;5069182;28;19916;-78
2021/09/03 01:06:09;;;;;;;;;;;9.70;99.90;;;;;;5078452;28;19917;-77
2021/09/03 01:08:35;;;;;;;;;;;9.60;99.90;;;;;;5068856;28;19920;-76
2021/09/03 01:11:01;;;;;;;;;;;9.60;99.90;;;;;;5068089;28;19960;-75
2021/09/03 01:13:26;;;;;;;;;;;9.60;99.90;;;;;;5087752;28;19916;-78
2021/09/03 01:15:52;;;;;;;;;;;9.60;99.90;;;;;;5070211;28;19917;-78
2021/09/03 01:18:18;;;;;;;;;;;9.80;99.90;;;;;;5057553;28;19920;-76
2021/09/03 01:20:44;;;;;;;;;;;9.60;99.90;;;;;;5070248;28;19985;-78
2021/09/03 01:23:09;;;;;;;;;;;9.40;99.90;;;;;;5068480;28;19920;-79
2021/09/03 01:25:35;;;;;;;;;;;9.90;99.90;;;;;;5070061;28;19916;-77
2021/09/03 01:28:00;;;;;;;;;;;9.30;99.90;;;;;;5077686;28;19921;-79
2021/09/03 01:30:26;;;;;;;;;;;9.60;99.90;;;;;;5045444;28;19917;-75
2021/09/03 01:32:51;;;;;;;;;;;9.50;99.90;;;;;;5057900;28;20369;-77
2021/09/03 01:35:17;;;;;;;;;;;9.30;99.90;;;;;;5066299;28;19920;-75
2021/09/03 01:37:43;;;;;;;;;;;9.50;99.90;;;;;;5069098;28;19935;-77
2021/09/03 01:40:09;;;;;;;;;;;9.20;99.90;;;;;;5058410;28;19917;-78
2021/09/03 01:42:34;;;;;;;;;;;9.30;99.90;;;;;;5050845;28;19925;-79
2021/09/03 01:45:00;;;;;;;;;;;9.60;99.90;;;;;;5085951;28;19923;-77
2021/09/03 01:47:25;;;;;;;;;;;9.20;99.90;;;;;;5052510;28;19928;-78
2021/09/03 01:49:51;;;;;;;;;;;9.40;99.90;;;;;;5068831;28;19924;-76
2021/09/03 01:52:17;;;;;;;;;;;9.20;99.90;;;;;;5056814;28;19923;-79
2021/09/03 01:54:42;;;;;;;;;;;9.60;99.90;;;;;;5054769;28;19917;-76
2021/09/03 01:57:08;;;;;;;;;;;9.60;99.90;;;;;;5052442;28;19974;-78
2021/09/03 01:59:33;;;;;;;;;;;9.40;99.90;;;;;;5068417;28;19956;-77
2021/09/03 02:01:59;;;;;;;;;;;9.20;99.90;;;;;;5056168;28;19969;-75
2021/09/03 02:04:25;;;;;;;;;;;9.20;99.90;;;;;;5053546;28;19923;-77
2021/09/03 02:06:50;;;;;;;;;;;9.30;99.90;;;;;;5066850;28;20423;-76
2021/09/03 02:09:16;;;;;;;;;;;9.40;99.90;;;;;;5054047;28;19924;-77
2021/09/03 02:11:41;;;;;;;;;;;9.20;99.90;;;;;;5068234;28;19924;-78
2021/09/03 02:14:07;;;;;;;;;;;9.40;99.90;;;;;;5067411;28;20298;-76
2021/09/03 02:16:32;;;;;;;;;;;9.10;99.90;;;;;;5067378;28;19931;-77
2021/09/03 02:19:01;;;;;;;;;;;9.20;99.90;;;;;;5065596;28;20011;-77
2021/09/03 02:21:26;;;;;;;;;;;9.00;99.90;;;;;;5067378;28;19920;-78
2021/09/03 02:23:52;;;;;;;;;;;9.30;99.90;;;;;;5064207;28;20297;-76
2021/09/03 02:26:18;;;;;;;;;;;8.90;99.90;;;;;;5097441;28;19916;-79
2021/09/03 02:28:43;;;;;;;;;;;9.10;99.90;;;;;;5061426;28;19921;-75
2021/09/03 02:31:09;;;;;;;;;;;9.00;99.90;;;;;;5058699;28;19920;-79
2021/09/03 02:33:35;;;;;;;;;;;9.00;99.90;;;;;;5062106;28;19916;-76
2021/09/03 02:36:00;;;;;;;;;;;8.90;99.90;;;;;;5050465;28;19931;-76
2021/09/03 02:38:26;;;;;;;;;;;8.90;99.90;;;;;;5060121;28;19995;-76
2021/09/03 02:40:51;;;;;;;;;;;8.90;99.90;;;;;;5067347;28;19924;-76
2021/09/03 02:43:17;;;;;;;;;;;8.80;99.90;;;;;;5058812;28;20351;-77
2021/09/03 02:45:43;;;;;;;;;;;8.70;99.90;;;;;;5053509;28;19956;-76
2021/09/03 02:48:08;;;;;;;;;;;8.80;99.90;;;;;;5078345;28;19921;-76
2021/09/03 02:50:34;;;;;;;;;;;9.00;99.90;;;;;;5030162;28;19928;-77
2021/09/03 02:52:59;;;;;;;;;;;8.80;99.90;;;;;;5053342;28;19924;-75
2021/09/03 02:55:26;;;;;;;;;;;9.10;99.90;;;;;;5083456;28;19920;-76
2021/09/03 02:57:52;;;;;;;;;;;8.30;99.90;;;;;;5044222;28;19948;-78
2021/09/03 03:00:17;;;;;;;;;;;8.80;99.90;;;;;;5067052;28;19963;-76
2021/09/03 03:02:43;;;;;;;;;;;8.80;99.90;;;;;;5082332;28;20351;-75
2021/09/03 03:05:09;;;;;;;;;;;9.10;99.90;;;;;;5058914;28;19956;-76
2021/09/03 03:07:34;;;;;;;;;;;8.80;99.90;;;;;;5052959;28;19917;-75
2021/09/03 03:10:00;;;;;;;;;;;9.40;99.90;;;;;;5062571;28;19916;-76
2021/09/03 03:12:25;;;;;;;;;;;9.00;99.90;;;;;;5053214;28;20007;-77
2021/09/03 03:14:51;;;;;;;;;;;9.00;99.90;;;;;;5050527;28;19917;-74
2021/09/03 03:17:17;;;;;;;;;;;8.60;99.90;;;;;;5051049;28;19971;-77
2021/09/03 03:19:43;;;;;;;;;;;8.80;99.90;;;;;;5084459;28;20278;-78
2021/09/03 03:22:09;;;;;;;;;;;8.90;99.90;;;;;;5050909;28;20338;-77
2021/09/03 03:24:34;;;;;;;;;;;8.80;99.90;;;;;;5050884;28;19917;-78
2021/09/03 03:27:00;;;;;;;;;;;8.80;99.90;;;;;;5050898;28;19923;-77
2021/09/03 03:29:25;;;;;;;;;;;8.40;99.90;;;;;;5046939;28;20017;-77
2021/09/03 03:31:51;;;;;;;;;;;8.40;99.90;;;;;;5070100;28;20289;-78
2021/09/03 03:34:17;;;;;;;;;;;8.40;99.90;;;;;;5053020;28;19916;-78
2021/09/03 03:36:42;;;;;;;;;;;8.70;99.90;;;;;;5054380;28;19921;-76
2021/09/03 03:39:08;;;;;;;;;;;8.70;99.90;;;;;;5055087;28;19928;-76
2021/09/03 03:41:34;;;;;;;;;;;8.60;99.90;;;;;;5070431;28;20019;-77
2021/09/03 03:44:00;;;;;;;;;;;8.50;99.90;;;;;;5053958;28;19923;-77
2021/09/03 03:46:25;;;;;;;;;;;8.50;99.90;;;;;;5059258;28;20377;-77
2021/09/03 03:48:51;;;;;;;;;;;8.40;99.90;;;;;;5068836;28;19916;-77
2021/09/03 03:51:17;;;;;;;;;;;8.60;99.90;;;;;;5042226;28;20003;-76
2021/09/03 03:53:42;;;;;;;;;;;8.60;99.90;;;;;;5086972;28;20000;-77
2021/09/03 03:56:08;;;;;;;;;;;8.40;99.90;;;;;;5058541;28;19917;-77
2021/09/03 03:58:34;;;;;;;;;;;8.50;99.90;;;;;;5058559;28;19917;-76
2021/09/03 04:00:59;;;;;;;;;;;8.30;99.90;;;;;;5061235;28;19931;-76
2021/09/03 04:03:25;;;;;;;;;;;8.10;99.90;;;;;;5068363;28;19921;-75
2021/09/03 04:05:50;;;;;;;;;;;8.50;99.90;;;;;;5053118;28;19928;-77
2021/09/03 04:08:16;;;;;;;;;;;8.20;99.90;;;;;;5061217;28;19942;-75
2021/09/03 04:10:41;;;;;;;;;;;8.20;99.90;;;;;;5060710;28;19924;-77
2021/09/03 04:13:07;;;;;;;;;;;8.40;99.90;;;;;;5062503;28;20358;-77
2021/09/03 04:15:33;;;;;;;;;;;8.50;99.90;;;;;;5074412;28;19926;-75
2021/09/03 04:17:58;;;;;;;;;;;8.40;99.90;;;;;;5064178;28;20353;-77
2021/09/03 04:20:24;;;;;;;;;;;8.30;99.90;;;;;;5107218;28;19948;-77
2021/09/03 04:22:49;;;;;;;;;;;8.40;99.90;;;;;;5070007;28;19940;-75
2021/09/03 04:25:15;;;;;;;;;;;8.30;99.90;;;;;;5062097;28;19923;-76
2021/09/03 04:27:41;;;;;;;;;;;8.30;99.90;;;;;;5070999;28;19923;-74
2021/09/03 04:30:08;;;;;;;;;;;8.30;99.90;;;;;;5078989;28;19917;-77
2021/09/03 04:32:33;;;;;;;;;;;8.10;99.90;;;;;;5051100;28;19920;-77
2021/09/03 04:34:59;;;;;;;;;;;8.40;99.90;;;;;;5060200;28;20637;-78
2021/09/03 04:37:24;;;;;;;;;;;8.10;99.90;;;;;;5068019;28;19921;-77
2021/09/03 04:39:50;;;;;;;;;;;8.20;99.90;;;;;;5104278;28;20357;-75
2021/09/03 04:42:16;;;;;;;;;;;8.50;99.90;;;;;;5075806;28;19952;-76
2021/09/03 04:44:41;;;;;;;;;;;8.30;99.90;;;;;;5070282;28;20324;-75
2021/09/03 04:47:07;;;;;;;;;;;8.20;99.90;;;;;;5077929;28;19917;-75
2021/09/03 04:49:33;;;;;;;;;;;8.40;99.90;;;;;;5059908;28;19927;-78
2021/09/03 04:51:58;;;;;;;;;;;8.20;99.90;;;;;;5066225;28;19917;-77
2021/09/03 04:54:24;;;;;;;;;;;8.20;99.90;;;;;;5100671;28;19923;-72
2021/09/03 04:56:49;;;;;;;;;;;8.10;99.90;;;;;;5094565;28;19923;-78
2021/09/03 04:59:15;;;;;;;;;;;8.10;99.90;;;;;;5100157;28;19938;-75
2021/09/03 05:01:41;;;;;;;;;;;8.40;99.90;;;;;;5088767;28;20382;-76
2021/09/03 05:04:06;;;;;;;;;;;8.60;99.90;;;;;;5093650;28;19959;-78
2021/09/03 05:06:32;;;;;;;;;;;8.60;99.90;;;;;;5053891;28;19924;-76
2021/09/03 05:08:57;;;;;;;;;;;8.80;99.90;;;;;;5082125;28;19916;-77
2021/09/03 05:11:23;;;;;;;;;;;8.80;99.90;;;;;;5054386;28;20044;-75
2021/09/03 05:13:49;;;;;;;;;;;9.00;99.90;;;;;;5068597;28;19995;-78
2021/09/03 05:16:14;;;;;;;;;;;9.00;99.90;;;;;;5085583;28;19923;-76
2021/09/03 05:18:40;;;;;;;;;;;9.10;99.90;;;;;;5053459;28;20366;-76
2021/09/03 05:21:08;;;;;;;;;;;9.60;99.90;;;;;;5053658;28;19925;-77
2021/09/03 05:23:35;;;;;;;;;;;9.40;99.90;;;;;;5052483;28;19920;-76
2021/09/03 05:26:00;;;;;;;;;;;9.50;99.90;;;;;;5086440;28;19921;-77
2021/09/03 05:28:27;;;;;;;;;;;9.70;99.90;;;;;;5055373;28;19970;-78
2021/09/03 05:30:53;;;;;;;;;;;9.90;99.90;;;;;;5053141;28;19920;-77
2021/09/03 05:33:19;;;;;;;;;;;10.00;99.90;;;;;;5051745;28;20266;-78
2021/09/03 05:35:45;;;;;;;;;;;10.30;99.90;;;;;;5085753;28;19921;-76
2021/09/03 05:38:10;;;;;;;;;;;10.60;99.90;;;;;;5072643;28;19920;-76
2021/09/03 05:40:36;;;;;;;;;;;10.50;99.90;;;;;;5046244;28;19921;-76
2021/09/03 05:43:02;;;;;;;;;;;10.50;99.90;;;;;;5075853;28;19923;-77
2021/09/03 05:45:27;;;;;;;;;;;10.70;99.90;;;;;;5052295;28;19917;-76
2021/09/03 05:47:53;;;;;;;;;;;10.80;99.90;;;;;;5067329;28;19996;-77
2021/09/03 05:50:19;;;;;;;;;;;11.00;99.90;;;;;;5063218;28;19917;-76
2021/09/03 05:52:45;;;;;;;;;;;11.10;99.90;;;;;;5061492;28;19923;-75
2021/09/03 05:55:11;;;;;;;;;;;11.10;99.90;;;;;;5065760;28;19917;-76
2021/09/03 05:57:36;;;;;;;;;;;11.30;99.90;;;;;;5076270;28;19916;-77
2021/09/03 06:00:03;;;;;;;;;;;11.30;99.90;;;;;;5077622;28;19916;-77
2021/09/03 06:02:28;;;;;;;;;;;11.50;99.90;;;;;;5066644;28;19936;-76
2021/09/03 06:04:54;;;;;;;;;;;11.60;99.90;;;;;;5061414;28;19916;-77
2021/09/03 06:07:19;;;;;;;;;;;11.70;99.90;;;;;;5062692;28;19917;-77
2021/09/03 06:09:45;;;;;;;;;;;11.80;99.90;;;;;;5067757;28;20368;-77
2021/09/03 06:12:10;;;;;;;;;;;11.90;99.90;;;;;;5058486;28;19925;-77
2021/09/03 06:14:36;;;;;;;;;;;12.10;99.90;;;;;;5062762;28;20362;-75
2021/09/03 06:17:02;;;;;;;;;;;;;;;;;;5065588;28;20025;-77
2021/09/03 06:19:28;;;;;;;;;;;12.20;99.90;;;;;;5083618;28;19916;-76
2021/09/03 06:21:53;;;;;;;;;;;12.40;99.90;;;;;;5058201;28;20410;-75
2021/09/03 06:24:29;;;;;;;;;;;12.50;99.90;;;;;;5053112;28;19923;-75
2021/09/03 06:26:59;;;;;;;;;;;12.70;99.90;;;;;;5067866;28;19917;-76
2021/09/03 06:29:37;;;;;;;;;;;12.80;99.90;;;;;;5056717;28;20023;-77
2021/09/03 06:32:04;;;;;;;;;;;12.90;99.90;;;;;;5065706;28;19925;-76
2021/09/03 06:34:30;;;;;;;;;;;13.10;99.90;;;;;;5061412;28;19917;-77
2021/09/03 06:36:55;;;;;;;;;;;13.10;99.90;;;;;;5069604;28;19928;-76
2021/09/03 06:39:21;;;;;;;;;;;13.20;99.90;;;;;;5064462;28;20349;-76
2021/09/03 06:41:46;;;;;;;;;;;13.40;99.90;;;;;;5060425;28;19921;-78
2021/09/03 06:44:12;;;;;;;;;;;13.40;99.90;;;;;;5058597;28;19916;-76
2021/09/03 06:46:37;;;;;;;;;;;13.60;99.90;;;;;;5058025;28;19978;-76
2021/09/03 06:49:03;;;;;;;;;;;13.70;99.90;;;;;;5058531;28;19925;-78
2021/09/03 06:51:29;;;;;;;;;;;13.80;99.90;;;;;;5066743;28;19939;-77
2021/09/03 06:53:54;;;;;;;;;;;14.00;99.90;;;;;;5087364;28;19916;-78
2021/09/03 06:56:20;;;;;;;;;;;14.10;99.90;;;;;;5067066;28;19916;-77
2021/09/03 06:58:45;;;;;;;;;;;14.10;99.90;;;;;;5045370;28;19921;-76
2021/09/03 07:01:11;;;;;;;;;;;14.30;99.90;;;;;;5062061;28;19967;-76
2021/09/03 07:03:36;;;;;;;;;;;14.40;99.90;;;;;;5085692;28;19917;-76
2021/09/03 07:06:02;;;;;;;;;;;14.50;99.90;;;;;;5074334;28;19969;-77
2021/09/03 07:08:27;;;;;;;;;;;14.60;99.90;;;;;;5073422;28;19916;-77
2021/09/03 07:10:53;;;;;;;;;;;14.70;99.90;;;;;;5067868;28;19920;-78
2021/09/03 07:13:18;;;;;;;;;;;14.90;99.90;;;;;;5090361;28;19916;-76
2021/09/03 07:15:44;;;;;;;;;;;14.90;99.90;;;;;;5054859;28;19917;-76
2021/09/03 07:18:10;;;;;;;;;;;15.00;99.90;;;;;;5053010;28;19917;-78
2021/09/03 07:20:35;;;;;;;;;;;15.00;99.90;;;;;;5069988;28;20007;-76
2021/09/03 07:23:01;;;;;;;;;;;15.10;99.90;;;;;;5054988;28;19956;-78
2021/09/03 07:25:27;;;;;;;;;;;15.20;99.90;;;;;;5055484;28;19917;-77
2021/09/03 07:27:53;;;;;;;;;;;15.30;99.90;;;;;;5087085;28;19923;-77
2021/09/03 07:30:18;;;;;;;;;;;15.40;99.90;;;;;;5055444;28;20000;-77
2021/09/03 07:32:44;;;;;;;;;;;15.40;99.90;;;;;;5052737;28;19963;-76
2021/09/03 07:35:14;;;;;;;;;;;15.50;99.90;;;;;;5056525;28;20274;-78
2021/09/03 07:37:40;;;;;;;;;;;15.60;99.90;;;;;;5071805;28;19920;-77
2021/09/03 07:40:06;;;;;;;;;;;15.80;99.90;;;;;;5055631;28;19974;-77
2021/09/03 07:42:33;;;;;;;;;;;;;;;;;;5053129;28;20003;-78
2021/09/03 07:44:59;;;;;;;;;;;15.80;99.90;;;;;;5087489;28;19917;-77
2021/09/03 07:47:24;;;;;;;;;;;15.90;99.90;;;;;;5052218;28;19966;-77
2021/09/03 07:49:50;;;;;;;;;;;15.80;99.90;;;;;;5059418;28;20313;-77
2021/09/03 07:52:16;;;;;;;;;;;16.00;99.90;;;;;;5054423;28;19917;-77
2021/09/03 07:54:41;;;;;;;;;;;16.00;99.90;;;;;;5060169;28;19926;-77
2021/09/03 07:57:07;;;;;;;;;;;16.10;99.90;;;;;;5072448;28;19928;-77
2021/09/03 07:59:33;;;;;;;;;;;16.20;99.90;;;;;;5061489;28;19921;-76
2021/09/03 08:01:59;;;;;;;;;;;16.30;99.90;;;;;;5088179;28;19932;-76
2021/09/03 08:04:25;;;;;;;;;;;16.40;99.90;;;;;;5059744;28;19916;-76
2021/09/03 08:06:50;;;;;;;;;;;16.50;99.90;;;;;;5056489;28;19925;-76
2021/09/03 08:09:16;;;;;;;;;;;16.60;99.90;;;;;;5061416;28;19917;-76
2021/09/03 08:11:41;;;;;;;;;;;16.60;99.90;;;;;;5090037;28;19920;-77
2021/09/03 08:14:07;;;;;;;;;;;16.80;99.90;;;;;;5060837;28;19917;-78
2021/09/03 08:16:32;;;;;;;;;;;16.90;99.90;;;;;;5066923;28;19921;-77
2021/09/03 08:18:58;;;;;;;;;;;16.90;99.90;;;;;;5051546;28;20008;-77
2021/09/03 08:21:24;;;;;;;;;;;16.90;99.90;;;;;;5071206;28;20019;-77
2021/09/03 08:23:50;;;;;;;;;;;16.90;99.90;;;;;;5063131;28;19970;-77
2021/09/03 08:26:15;;;;;;;;;;;16.90;99.90;;;;;;5101935;28;20350;-77
2021/09/03 08:28:41;;;;;;;;;;;16.90;99.90;;;;;;5072702;28;19916;-77
2021/09/03 08:31:06;;;;;;;;;;;16.90;99.90;;;;;;5068865;28;19956;-77
2021/09/03 08:33:32;;;;;;;;;;;17.00;99.90;;;;;;5071553;28;20006;-77
2021/09/03 08:35:58;;;;;;;;;;;17.00;99.90;;;;;;5050326;28;19924;-77
2021/09/03 08:38:23;;;;;;;;;;;17.10;99.90;;;;;;5075341;28;19929;-77
2021/09/03 08:40:49;;;;;;;;;;;17.10;99.90;;;;;;5063707;28;19924;-78
2021/09/03 08:43:17;;;;;;;;;;;17.10;99.90;;;;;;5071266;28;19916;-77
2021/09/03 08:45:44;;;;;;;;;;;17.10;99.90;;;;;;5068031;28;19973;-78
2021/09/03 08:48:10;;;;;;;;;;;17.10;99.90;;;;;;5058174;28;19927;-77
2021/09/03 08:50:36;;;;;;;;;;;17.10;99.90;;;;;;5058061;28;19917;-78
2021/09/03 08:53:01;;;;;;;;;;;17.20;99.90;;;;;;5059415;28;20397;-77
2021/09/03 08:55:27;;;;;;;;;;;17.30;99.90;;;;;;5061459;28;19922;-77
2021/09/03 08:57:53;;;;;;;;;;;17.40;99.90;;;;;;5077410;28;19916;-77
2021/09/03 09:00:30;;;;;;;;;;;17.40;99.90;;;;;;5065469;28;20277;-77
2021/09/03 09:02:58;;;;;;;;;;;17.50;99.90;;;;;;5051203;28;20382;-77
2021/09/03 09:05:43;;;;;;;;;;;17.90;99.90;;;;;;5057372;28;19928;-77
2021/09/03 09:08:08;;;;;;;;;;;18.00;99.90;;;;;;5046524;28;19924;-76
2021/09/03 09:10:34;;;;;;;;;;;18.00;99.90;;;;;;5053582;28;19916;-77
2021/09/03 09:13:00;;;;;;;;;;;17.90;99.90;;;;;;5064605;28;19962;-76
2021/09/03 09:15:25;;;;;;;;;;;17.90;99.90;;;;;;5057451;28;19964;-77
2021/09/03 09:17:51;;;;;;;;;;;18.00;99.90;;;;;;5074363;28;19967;-76
2021/09/03 09:20:17;;;;;;;;;;;17.90;99.90;;;;;;5053282;28;19923;-76
2021/09/03 09:22:53;;;;;;;;;;;18.20;99.90;;;;;;5055164;28;19967;-76
2021/09/03 09:25:19;;;;;;;;;;;17.90;99.90;;;;;;5068348;28;19917;-77
2021/09/03 09:27:46;;;;;;;;;;;18.00;99.90;;;;;;5054621;28;19923;-76
2021/09/03 09:30:28;;;;;;;;;;;18.20;99.90;;;;;;5044303;28;19917;-76
2021/09/03 09:33:29;;;;;;;;;;;18.00;99.90;;;;;;5048600;28;19931;-76
2021/09/03 09:35:56;;;;;;;;;;;18.10;99.90;;;;;;5035357;28;19924;-76
2021/09/03 09:38:26;;;;;;;;;;;18.00;99.90;;;;;;5050782;28;19916;-75
2021/09/03 09:40:52;;;;;;;;;;;18.30;99.90;;;;;;5054411;28;19948;-76
2021/09/03 09:43:24;;;;;;;;;;;18.20;99.90;;;;;;5053780;28;19916;-76
2021/09/03 09:46:19;;;;;;;;;;;18.30;99.90;;;;;;5052539;28;19923;-76
2021/09/03 09:48:48;;;;;;;;;;;18.20;99.90;;;;;;5039746;28;19917;-76
2021/09/03 09:51:23;;;;;;;;;;;18.40;99.90;;;;;;5057930;28;19986;-76
2021/09/03 09:53:56;;;;;;;;;;;18.60;99.90;;;;;;5070310;28;20003;-76
2021/09/03 09:56:23;;;;;;;;;;;18.50;99.90;;;;;;5062656;28;20258;-76
2021/09/03 09:58:53;;;;;;;;;;;18.70;99.90;;;;;;5043955;28;20430;-76
2021/09/03 10:01:19;;;;;;;;;;;18.60;99.90;;;;;;5060581;28;19931;-77
2021/09/03 10:03:49;;;;;;;;;;;19.00;99.90;;;;;;5084810;28;20255;-76
2021/09/03 10:06:15;;;;;;;;;;;18.30;99.90;;;;;;5057499;28;19923;-76
2021/09/03 10:08:42;;;;;;;;;;;18.40;99.90;;;;;;5087140;28;19916;-76
2021/09/03 10:11:08;;;;;;;;;;;18.40;99.90;;;;;;5064656;28;20280;-77
2021/09/03 10:13:34;;;;;;;;;;;18.40;99.90;;;;;;5059489;28;20008;-76
2021/09/03 10:15:59;;;;;;;;;;;18.40;99.90;;;;;;5059615;28;20036;-76
2021/09/03 10:18:25;;;;;;;;;;;18.30;99.90;;;;;;5052445;28;19927;-76
2021/09/03 10:20:50;;;;;;;;;;;18.40;99.90;;;;;;5063575;28;19965;-77
2021/09/03 10:23:35;;;;;;;;;;;18.40;99.90;;;;;;5067878;28;19917;-76
2021/09/03 10:26:01;;;;;;;;;;;18.50;99.90;;;;;;5100936;28;20429;-76
2021/09/03 10:28:26;;;;;;;;;;;18.60;99.90;;;;;;5066679;28;19916;-76
2021/09/03 10:31:02;;;;;;;;;;;18.70;99.90;;;;;;5053936;28;19920;-76
2021/09/03 10:33:33;;;;;;;;;;;18.80;99.90;;;;;;5066925;28;19916;-76
2021/09/03 10:35:58;;;;;;;;;;;18.80;99.90;;;;;;5079098;28;19974;-76
2021/09/03 10:38:34;;;;;;;;;;;18.90;99.90;;;;;;5057386;28;19955;-77
2021/09/03 10:41:01;;;;;;;;;;;19.30;99.90;;;;;;5088601;28;19931;-76
2021/09/03 10:43:48;;;;;;;;;;;19.60;99.90;;;;;;5104021;28;20277;-76
2021/09/03 10:46:14;;;;;;;;;;;19.80;99.90;;;;;;5070028;28;19920;-76
2021/09/03 10:48:47;;;;;;;;;;;20.00;99.90;;;;;;5071604;28;19920;-76
2021/09/03 10:51:13;;;;;;;;;;;20.50;99.90;;;;;;5041275;28;19924;-76
2021/09/03 10:53:43;;;;;;;;;;;20.30;99.90;;;;;;5074088;28;19917;-77
2021/09/03 10:56:16;;;;;;;;;;;20.30;99.90;;;;;;5087528;28;19943;-76
2021/09/03 10:58:49;;;;;;;;;;;20.20;99.90;;;;;;5058683;28;19986;-76
2021/09/03 11:01:14;;;;;;;;;;;20.20;99.90;;;;;;5070979;28;19920;-76
2021/09/03 11:03:44;;;;;;;;;;;20.00;99.90;;;;;;5064584;28;19960;-76
2021/09/03 11:06:27;;;;;;;;;;;20.10;99.90;;;;;;5064064;28;19923;-76
2021/09/03 11:08:57;;;;;;;;;;;20.00;99.90;;;;;;5067799;28;19965;-76
2021/09/03 11:11:27;;;;;;;;;;;20.10;99.90;;;;;;5067653;28;19924;-76
2021/09/03 11:13:55;;;;;;;;;;;19.80;99.90;;;;;;5066466;28;19916;-76
2021/09/03 11:16:31;;;;;;;;;;;19.90;99.90;;;;;;5071415;28;20377;-75
2021/09/03 11:19:00;;;;;;;;;;;20.00;99.90;;;;;;5086542;28;19939;-76
2021/09/03 11:21:30;;;;;;;;;;;20.10;99.90;;;;;;5055287;28;19924;-75
2021/09/03 11:23:55;;;;;;;;;;;20.30;99.90;;;;;;5059701;28;19916;-77
2021/09/03 11:26:21;;;;;;;;;;;20.40;99.90;;;;;;5060475;28;20326;-76
2021/09/03 11:28:47;;;;;;;;;;;20.30;99.90;;;;;;5072145;28;19916;-76
2021/09/03 11:31:12;;;;;;;;;;;20.50;99.90;;;;;;5060498;28;19927;-76
2021/09/03 11:33:44;;;;;;;;;;;20.70;99.90;;;;;;5064951;28;19920;-76
2021/09/03 11:36:09;;;;;;;;;;;20.80;99.90;;;;;;5061598;28;19921;-76
2021/09/03 11:38:35;;;;;;;;;;;20.70;99.90;;;;;;5059482;28;19924;-76
2021/09/03 11:41:07;;;;;;;;;;;20.50;99.90;;;;;;5055748;28;19921;-76
2021/09/03 11:43:33;;;;;;;;;;;20.30;99.90;;;;;;5041634;28;19923;-77
2021/09/03 11:45:58;;;;;;;;;;;20.30;99.90;;;;;;5087536;28;19916;-77
2021/09/03 11:48:24;;;;;;;;;;;20.20;99.90;;;;;;5072091;28;19916;-76
2021/09/03 11:50:49;;;;;;;;;;;20.10;99.90;;;;;;5064923;28;20052;-77
2021/09/03 11:53:23;;;;;;;;;;;20.10;99.90;;;;;;5057314;28;19916;-76
2021/09/03 11:55:49;;;;;;;;;;;20.10;99.90;;;;;;5049719;28;20366;-76
2021/09/03 11:58:15;;;;;;;;;;;20.30;99.90;;;;;;5087451;28;19916;-77
2021/09/03 12:00:42;;;;;;;;;;;20.30;99.90;;;;;;5062380;28;19917;-77
2021/09/03 12:03:10;;;;;;;;;;;20.70;99.90;;;;;;5092474;28;19925;-77
2021/09/03 12:05:37;;;;;;;;;;;20.80;99.90;;;;;;5060037;28;19920;-77
2021/09/03 12:08:04;;;;;;;;;;;20.80;99.90;;;;;;5060970;28;19963;-76
2021/09/03 12:10:48;;;;;;;;;;;20.40;99.90;;;;;;5081428;28;19966;-77
2021/09/03 12:13:18;;;;;;;;;;;20.10;99.90;;;;;;5085784;28;20313;-76
2021/09/03 12:15:45;;;;;;;;;;;20.10;99.90;;;;;;5060547;28;19920;-76
2021/09/03 12:18:37;;;;;;;;;;;20.20;99.90;;;;;;5061316;28;19917;-77
2021/09/03 12:21:13;;;;;;;;;;;20.40;99.90;;;;;;5053638;28;20004;-76
2021/09/03 12:23:40;;;;;;;;;;;20.70;99.90;;;;;;5059620;28;19999;-76
2021/09/03 12:26:08;;;;;;;;;;;20.90;99.90;;;;;;5087175;28;20022;-76
2021/09/03 12:28:33;;;;;;;;;;;20.80;99.90;;;;;;5105532;28;19920;-76
2021/09/03 12:31:04;;;;;;;;;;;20.50;99.90;;;;;;5045900;28;19920;-76
2021/09/03 12:33:30;;;;;;;;;;;20.60;99.90;;;;;;5049474;28;19920;-76
2021/09/03 12:36:03;;;;;;;;;;;20.70;99.90;;;;;;5003919;28;1165389;-76
2021/09/03 12:38:30;;;;;;;;;;;20.40;99.90;;;;;;5067498;28;19975;-76
2021/09/03 12:41:16;;;;;;;;;;;20.60;99.90;;;;;;5090522;28;20301;-77
2021/09/03 12:43:42;;;;;;;;;;;20.80;99.90;;;;;;5070891;28;19924;-75
2021/09/03 12:46:09;;;;;;;;;;;21.10;99.90;;;;;;5082454;28;19995;-77
2021/09/03 12:48:35;;;;;;;;;;;21.20;99.90;;;;;;5059125;28;19917;-75
2021/09/03 12:51:01;;;;;;;;;;;21.50;99.90;;;;;;5039995;28;19917;-76
2021/09/03 12:53:26;;;;;;;;;;;21.60;99.90;;;;;;5059324;28;19923;-76
2021/09/03 12:55:52;;;;;;;;;;;21.60;99.90;;;;;;5059788;28;19916;-76
2021/09/03 12:58:18;;;;;;;;;;;21.40;99.90;;;;;;5056215;28;19962;-76
2021/09/03 13:00:43;;;;;;;;;;;21.40;99.90;;;;;;5055739;28;19924;-76
2021/09/03 13:03:09;;;;;;;;;;;21.50;99.90;;;;;;5068800;28;19917;-77
2021/09/03 13:05:35;;;;;;;;;;;21.50;99.90;;;;;;5059755;28;19917;-76
2021/09/03 13:08:02;;;;;;;;;;;21.30;99.90;;;;;;5044328;28;19965;-76
2021/09/03 13:10:27;;;;;;;;;;;21.10;99.90;;;;;;5087670;28;19923;-76
2021/09/03 13:12:53;;;;;;;;;;;21.00;99.90;;;;;;5055439;28;19921;-77
2021/09/03 13:15:19;;;;;;;;;;;21.00;99.90;;;;;;5071124;28;19923;-76
2021/09/03 13:17:45;;;;;;;;;;;21.00;99.90;;;;;;5064892;28;20282;-76
2021/09/03 13:20:10;;;;;;;;;;;21.00;99.90;;;;;;5087681;28;19920;-77
2021/09/03 13:22:36;;;;;;;;;;;21.30;99.90;;;;;;5068468;28;20065;-75
2021/09/03 13:25:02;;;;;;;;;;;21.60;99.90;;;;;;5087778;28;19916;-75
2021/09/03 13:27:27;;;;;;;;;;;21.70;99.90;;;;;;5075604;28;19921;-76
2021/09/03 13:29:53;;;;;;;;;;;21.40;99.90;;;;;;5051439;28;19943;-76
2021/09/03 13:32:19;;;;;;;;;;;21.50;99.90;;;;;;5055486;28;19967;-76
2021/09/03 13:34:45;;;;;;;;;;;22.00;99.90;;;;;;5056780;28;19917;-75
2021/09/03 13:37:10;;;;;;;;;;;22.60;99.90;;;;;;5056636;28;19924;-75
2021/09/03 13:39:36;;;;;;;;;;;23.00;99.90;;;;;;5056738;28;19960;-75
2021/09/03 13:42:02;;;;;;;;;;;22.80;99.90;;;;;;5057477;28;19920;-75
2021/09/03 13:44:27;;;;;;;;;;;22.60;99.90;;;;;;5069768;28;19917;-77
2021/09/03 13:46:53;;;;;;;;;;;22.80;99.90;;;;;;5064422;28;19921;-77
2021/09/03 13:49:18;;;;;;;;;;;23.20;99.90;;;;;;5064792;28;19916;-76
2021/09/03 13:51:44;;;;;;;;;;;23.40;99.90;;;;;;5057618;28;20378;-76
2021/09/03 13:54:10;;;;;;;;;;;23.30;99.90;;;;;;5084278;28;19984;-76
2021/09/03 13:56:37;;;;;;;;;;;23.50;99.90;;;;;;5052613;28;19924;-76
2021/09/03 13:59:05;;;;;;;;;;;23.90;99.90;;;;;;5051740;28;19916;-77
2021/09/03 14:01:30;;;;;;;;;;;24.30;99.90;;;;;;5053157;28;19927;-76
2021/09/03 14:03:56;;;;;;;;;;;24.40;99.90;;;;;;5050583;28;19916;-76
2021/09/03 14:06:22;;;;;;;;;;;24.50;99.90;;;;;;5054761;28;19970;-76
2021/09/03 14:08:47;;;;;;;;;;;24.40;99.90;;;;;;5084776;28;19917;-75
2021/09/03 14:11:13;;;;;;;;;;;24.30;99.90;;;;;;5052790;28;19921;-76
2021/09/03 14:13:38;;;;;;;;;;;24.50;98.60;;;;;;5034182;28;19921;-76
2021/09/03 14:16:04;;;;;;;;;;;24.80;98.00;;;;;;5051556;28;19924;-76
2021/09/03 14:18:30;;;;;;;;;;;25.00;99.90;;;;;;5052980;28;20400;-76